Time;durP1;ratioP1;P1;durP2;ratioP2;P2;SDS_P1;SDS_P2;PMS_P1;PMS_P2;Temp;Humidity;BMP_temperature;BMP_pressure;BME280_temperature;BME280_humidity;BME280_pressure;Samples;Min_cycle;Max_cycle;Signal;HPM_P1;HPM_P2
2022/01/05 00:01:59;;;;;;;;;;;;;;;9.63;76.93;101007.78;5034899;28;20329;-53
2022/01/05 00:04:27;;;;;;;;;;;;;;;9.64;76.88;101018.69;5035092;28;19925;-53
2022/01/05 00:06:53;;;;;;;;;;;;;;;9.66;76.94;101033.19;5034534;28;20012;-53
2022/01/05 00:09:20;;;;;;;;;;;;;;;9.62;76.71;101034.84;5034291;28;20011;-52
2022/01/05 00:11:47;;;;;;;;;;;;;;;9.58;76.99;101036.47;5034713;28;20349;-49
2022/01/05 00:14:15;;;;;;;;;;;;;;;9.55;77.03;101025.84;5052154;28;20279;-52
2022/01/05 00:16:41;;;;;;;;;;;;;;;9.55;77.30;101025.84;5052388;28;19927;-52
2022/01/05 00:19:08;;;;;;;;;;;;;;;9.59;77.29;101023.38;5054104;28;19921;-53
2022/01/05 00:21:35;;;;;;;;;;;;;;;9.63;77.38;101028.16;5043310;28;20016;-52
2022/01/05 00:24:02;;;;;;;;;;;;;;;9.69;77.02;101020.69;5033903;28;19963;-53
2022/01/05 00:26:29;;;;;;;;;;;;;;;9.73;77.12;101019.03;5034065;28;20348;-52
2022/01/05 00:28:56;;;;;;;;;;;;;;;9.77;77.12;101017.41;5034077;28;20020;-52
2022/01/05 00:31:22;;;;;;;;;;;;;;;9.77;77.10;101013.78;5051965;28;20380;-52
2022/01/05 00:33:50;;;;;;;;;;;;;;;9.76;76.92;101009.31;5052576;28;19921;-50
2022/01/05 00:36:17;;;;;;;;;;;;;;;9.75;76.81;101004.84;5054103;28;20491;-53
2022/01/05 00:38:45;;;;;;;;;;;;;;;9.72;76.98;100998.69;5053377;28;20023;-50
2022/01/05 00:41:12;;;;;;;;;;;;;;;9.70;77.17;101009.25;5040521;28;19921;-50
2022/01/05 00:43:39;;;;;;;;;;;;;;;9.65;77.25;101009.22;5033860;28;20008;-52
2022/01/05 00:46:05;;;;;;;;;;;;;;;9.63;77.25;101005.84;5035105;28;20028;-51
2022/01/05 00:48:34;;;;;;;;;;;;;;;9.61;77.09;100996.06;5053725;28;20403;-54
2022/01/05 00:51:02;;;;;;;;;;;;;;;9.61;77.16;101010.84;5053751;28;19920;-51
2022/01/05 00:53:29;;;;;;;;;;;;;;;9.59;77.22;101010.25;5034117;28;20007;-52
2022/01/05 00:55:56;;;;;;;;;;;;;;;9.56;77.21;101010.78;5032215;28;20372;-52
2022/01/05 00:58:23;;;;;;;;;;;;;;;9.55;77.27;101016.63;5033883;28;20003;-53
2022/01/05 01:00:49;;;;;;;;;;;;;;;9.56;77.22;101010.78;5033732;28;19959;-53
2022/01/05 01:03:16;;;;;;;;;;;;;;;9.51;77.03;101016.31;5033739;28;19921;-51
2022/01/05 01:05:43;;;;;;;;;;;;;;;9.49;77.47;101010.16;5033431;28;20016;-51
2022/01/05 01:08:10;;;;;;;;;;;;;;;9.48;77.30;101017.69;5033285;28;19943;-52
2022/01/05 01:10:37;;;;;;;;;;;;;;;9.46;77.62;101011.50;5033714;28;20040;-52
2022/01/05 01:13:04;;;;;;;;;;;;;;;9.42;77.69;100995.59;5033948;28;20346;-51
2022/01/05 01:15:30;;;;;;;;;;;;;;;9.37;78.16;100995.53;5033456;28;19963;-53
2022/01/05 01:17:57;;;;;;;;;;;;;;;9.33;78.42;101002.72;5033378;28;19925;-52
2022/01/05 01:20:24;;;;;;;;;;;;;;;9.29;78.49;100998.78;5037810;28;20399;-51
2022/01/05 01:22:51;;;;;;;;;;;;;;;9.27;78.68;100998.22;5052860;28;19920;-52
2022/01/05 01:25:17;;;;;;;;;;;;;;;9.26;78.87;100988.97;5050182;28;20032;-52
2022/01/05 01:27:45;;;;;;;;;;;;;;;9.23;78.81;100990.38;5033033;28;19980;-53
2022/01/05 01:30:12;;;;;;;;;;;;;;;9.17;79.14;100985.84;5033368;28;19959;-53
2022/01/05 01:32:39;;;;;;;;;;;;;;;9.12;79.05;100976.56;5033239;28;19948;-49
2022/01/05 01:35:05;;;;;;;;;;;;;;;9.07;79.38;100991.28;5033222;28;20375;-50
2022/01/05 01:37:32;;;;;;;;;;;;;;;9.06;79.27;100986.81;5033091;28;20041;-52
2022/01/05 01:39:59;;;;;;;;;;;;;;;9.06;79.49;100985.97;5053005;28;20418;-52
2022/01/05 01:42:26;;;;;;;;;;;;;;;9.08;79.78;100980.97;5053034;28;20381;-49
2022/01/05 01:44:52;;;;;;;;;;;;;;;9.16;79.74;100986.09;5049380;28;20024;-50
2022/01/05 01:47:19;;;;;;;;;;;;;;;9.25;79.62;100984.53;5033108;28;19931;-50
2022/01/05 01:49:47;;;;;;;;;;;;;;;9.31;79.65;100972.34;5032981;28;19921;-51
2022/01/05 01:52:13;;;;;;;;;;;;;;;9.35;79.65;100973.50;5033101;28;19960;-50
2022/01/05 01:54:40;;;;;;;;;;;;;;;9.34;79.77;100984.91;5032656;28;20004;-51
2022/01/05 01:57:07;;;;;;;;;;;;;;;9.28;79.76;100981.22;5032356;28;20012;-52
2022/01/05 01:59:34;;;;;;;;;;;;;;;9.23;79.83;100990.38;5032669;28;20357;-52
2022/01/05 02:02:02;;;;;;;;;;;;;;;9.22;80.01;100998.97;5032976;28;19921;-51
2022/01/05 02:04:29;;;;;;;;;;;;;;;9.20;79.96;100982.53;5032733;28;19971;-50
2022/01/05 02:06:56;;;;;;;;;;;;;;;9.19;79.99;100983.59;5031768;28;20016;-50
2022/01/05 02:09:22;;;;;;;;;;;;;;;9.18;80.05;100992.25;5032083;28;20420;-50
2022/01/05 02:11:51;;;;;;;;;;;;;;;9.14;80.11;100978.00;5032776;28;20058;-50
2022/01/05 02:14:17;;;;;;;;;;;;;;;9.10;80.23;100987.97;5050451;28;20020;-50
2022/01/05 02:16:45;;;;;;;;;;;;;;;9.04;80.10;100985.41;5051179;28;19964;-51
2022/01/05 02:19:12;;;;;;;;;;;;;;;8.97;80.41;100992.00;5032473;28;19927;-50
2022/01/05 02:21:39;;;;;;;;;;;;;;;8.92;80.61;100999.44;5032544;28;20336;-51
2022/01/05 02:24:07;;;;;;;;;;;;;;;8.89;80.75;100999.94;5032706;28;20266;-50
2022/01/05 02:26:34;;;;;;;;;;;;;;;8.91;80.78;101015.31;5040550;28;19927;-49
2022/01/05 02:29:02;;;;;;;;;;;;;;;8.91;80.89;101014.47;5049383;28;19931;-52
2022/01/05 02:31:29;;;;;;;;;;;;;;;8.91;80.85;101008.91;5052317;28;19920;-48
2022/01/05 02:33:57;;;;;;;;;;;;;;;8.92;80.74;101017.00;5047557;28;19963;-50
2022/01/05 02:36:23;;;;;;;;;;;;;;;8.94;80.88;101009.22;5033037;28;20011;-53
2022/01/05 02:38:51;;;;;;;;;;;;;;;8.98;80.87;101018.75;5032331;28;19927;-50
2022/01/05 02:41:18;;;;;;;;;;;;;;;9.05;80.77;101024.13;5031943;28;20019;-51
2022/01/05 02:43:45;;;;;;;;;;;;;;;9.10;80.47;101035.34;5032451;28;20361;-51
2022/01/05 02:46:13;;;;;;;;;;;;;;;9.11;80.45;101042.59;5032378;28;19964;-52
2022/01/05 02:48:41;;;;;;;;;;;;;;;9.12;80.46;101033.13;5032219;28;19925;-52
2022/01/05 02:51:08;;;;;;;;;;;;;;;9.12;80.33;101033.13;5032651;28;19964;-49
2022/01/05 02:53:34;;;;;;;;;;;;;;;9.11;80.49;101034.25;5032837;28;20111;-51
2022/01/05 02:56:01;;;;;;;;;;;;;;;9.05;80.60;101042.78;5032503;28;20003;-49
2022/01/05 02:58:28;;;;;;;;;;;;;;;9.00;80.64;101043.56;5032381;28;20032;-47
2022/01/05 03:00:54;;;;;;;;;;;;;;;8.97;80.58;101044.09;5032445;28;20322;-50
2022/01/05 03:03:25;;;;;;;;;;;;;;;8.94;80.83;101053.78;5032296;28;19921;-51
2022/01/05 03:05:52;;;;;;;;;;;;;;;8.96;80.79;101057.19;5031729;28;19928;-52
2022/01/05 03:08:18;;;;;;;;;;;;;;;8.97;80.85;101058.00;5032186;28;19982;-51
2022/01/05 03:10:45;;;;;;;;;;;;;;;8.95;80.96;101061.03;5032464;28;20007;-52
2022/01/05 03:13:12;;;;;;;;;;;;;;;8.93;80.90;101068.81;5031866;28;20019;-51
2022/01/05 03:15:39;;;;;;;;;;;;;;;8.92;80.91;101061.59;5032060;28;20012;-50
2022/01/05 03:18:06;;;;;;;;;;;;;;;8.92;80.92;101052.34;5039199;28;19971;-50
2022/01/05 03:20:34;;;;;;;;;;;;;;;8.89;80.98;101062.09;5035824;28;20028;-51
2022/01/05 03:23:03;;;;;;;;;;;;;;;8.86;81.13;101061.75;5037572;28;19971;-51
2022/01/05 03:25:30;;;;;;;;;;;;;;;8.80;81.09;101048.84;5055226;28;20019;-51
2022/01/05 03:27:57;;;;;;;;;;;;;;;8.73;81.15;101041.53;5054648;28;19963;-50
2022/01/05 03:30:25;;;;;;;;;;;;;;;8.68;81.35;101044.25;5040967;28;20082;-50
2022/01/05 03:35:27;;;;;;;;;;;;;;;8.61;81.50;101053.84;5055145;28;20018;-49
2022/01/05 03:37:54;;;;;;;;;;;;;;;8.61;81.63;101048.28;5053777;28;20016;-48
2022/01/05 03:40:21;;;;;;;;;;;;;;;8.64;81.83;101045.84;5054965;28;20023;-51
2022/01/05 03:42:47;;;;;;;;;;;;;;;8.71;81.92;101040.94;5035921;28;20479;-51
2022/01/05 03:45:15;;;;;;;;;;;;;;;8.73;81.50;101043.47;5035361;28;19972;-48
2022/01/05 03:47:42;;;;;;;;;;;;;;;8.67;81.51;101045.31;5035096;28;19987;-49
2022/01/05 03:50:08;;;;;;;;;;;;;;;8.59;81.89;101040.22;5035185;28;20003;-52
2022/01/05 03:52:36;;;;;;;;;;;;;;;8.48;82.18;101038.38;5034866;28;19928;-51
2022/01/05 03:55:03;;;;;;;;;;;;;;;8.38;82.11;101046.56;5034635;28;19928;-49
2022/01/05 03:57:30;;;;;;;;;;;;;;;8.33;82.25;101050.06;5035005;28;20021;-50
2022/01/05 04:00:00;;;;;;;;;;;;;;;8.27;82.39;101046.38;5034627;28;20039;-50
2022/01/05 04:02:26;;;;;;;;;;;;;;;8.23;82.74;101031.25;5035189;28;20024;-48
2022/01/05 04:04:53;;;;;;;;;;;;;;;8.19;82.87;101032.88;5034759;28;19921;-51
2022/01/05 04:07:20;;;;;;;;;;;;;;;8.18;82.69;101045.09;5034507;28;20007;-49
2022/01/05 04:09:47;;;;;;;;;;;;;;;8.18;82.83;101042.31;5034715;28;20020;-51
2022/01/05 04:12:14;;;;;;;;;;;;;;;8.19;82.86;101035.66;5035539;28;19952;-52
2022/01/05 04:14:42;;;;;;;;;;;;;;;8.20;82.85;101042.03;5040624;28;19956;-52
2022/01/05 04:17:08;;;;;;;;;;;;;;;8.20;83.01;101048.44;5034254;28;20020;-50
2022/01/05 04:19:35;;;;;;;;;;;;;;;8.20;82.91;101037.31;5034885;28;19968;-51
2022/01/05 04:22:03;;;;;;;;;;;;;;;8.24;83.00;101038.53;5034394;28;20365;-49
2022/01/05 04:24:30;;;;;;;;;;;;;;;8.28;82.99;101030.50;5034475;28;20008;-52
2022/01/05 04:26:56;;;;;;;;;;;;;;;8.32;83.06;101026.97;5034212;28;19947;-50
2022/01/05 04:29:23;;;;;;;;;;;;;;;8.38;83.12;101029.88;5034187;28;20354;-48
2022/01/05 04:31:50;;;;;;;;;;;;;;;8.45;83.09;101034.16;5033616;28;20007;-50
2022/01/05 04:34:18;;;;;;;;;;;;;;;8.48;82.99;101016.94;5034492;28;19967;-50
2022/01/05 04:37:07;;;;;;;;;;;;;;;8.51;82.76;101018.34;5049597;28;20400;-48
2022/01/05 04:39:34;;;;;;;;;;;;;;;8.52;82.91;101017.28;5033812;28;20020;-48
2022/01/05 04:42:01;;;;;;;;;;;;;;;8.54;83.00;101020.63;5033839;28;19953;-51
2022/01/05 04:44:27;;;;;;;;;;;;;;;8.57;82.80;101014.56;5033789;28;20015;-51
2022/01/05 04:46:54;;;;;;;;;;;;;;;8.63;83.18;101019.09;5033754;28;20024;-50
2022/01/05 04:49:21;;;;;;;;;;;;;;;8.69;82.90;101011.69;5033865;28;19920;-52
2022/01/05 04:51:47;;;;;;;;;;;;;;;8.69;82.60;101006.94;5033940;28;19971;-51
2022/01/05 04:54:15;;;;;;;;;;;;;;;8.69;82.50;101015.31;5034463;28;19967;-49
2022/01/05 04:56:42;;;;;;;;;;;;;;;8.72;82.58;101017.56;5033612;28;20015;-51
2022/01/05 04:59:09;;;;;;;;;;;;;;;8.76;82.28;101026.25;5033418;28;19960;-52
2022/01/05 05:01:36;;;;;;;;;;;;;;;8.77;82.56;101025.16;5033697;28;20007;-51
2022/01/05 05:04:05;;;;;;;;;;;;;;;8.76;82.21;101020.69;5033189;28;19940;-50
2022/01/05 05:06:31;;;;;;;;;;;;;;;8.78;82.39;101022.09;5033508;28;20337;-52
2022/01/05 05:08:58;;;;;;;;;;;;;;;8.80;82.47;101023.78;5033495;28;20054;-51
2022/01/05 05:11:26;;;;;;;;;;;;;;;8.82;82.35;101029.94;5034106;28;19964;-51
2022/01/05 05:13:53;;;;;;;;;;;;;;;8.84;82.35;101038.88;5033178;28;20390;-50
2022/01/05 05:16:20;;;;;;;;;;;;;;;8.83;82.23;101035.25;5033158;28;19964;-50
2022/01/05 05:18:47;;;;;;;;;;;;;;;8.80;82.30;101030.22;5033478;28;20032;-49
2022/01/05 05:21:14;;;;;;;;;;;;;;;8.81;82.19;101033.81;5033514;28;19955;-49
2022/01/05 05:23:41;;;;;;;;;;;;;;;8.84;82.24;101030.53;5032950;28;19975;-48
2022/01/05 05:26:07;;;;;;;;;;;;;;;8.87;82.28;101036.44;5033231;28;20341;-53
2022/01/05 05:28:34;;;;;;;;;;;;;;;8.93;82.17;101038.19;5033738;28;19928;-49
2022/01/05 05:31:00;;;;;;;;;;;;;;;8.99;82.27;101031.59;5032738;28;20023;-52
2022/01/05 05:33:31;;;;;;;;;;;;;;;9.05;82.25;101026.91;5033414;28;19924;-51
2022/01/05 05:35:58;;;;;;;;;;;;;;;9.08;82.15;101026.41;5033237;28;20285;-50
2022/01/05 05:38:25;;;;;;;;;;;;;;;9.05;82.15;101018.56;5033048;28;20016;-52
2022/01/05 05:40:51;;;;;;;;;;;;;;;9.04;82.02;101024.41;5035980;28;20443;-51
2022/01/05 05:43:18;;;;;;;;;;;;;;;9.03;82.45;101012.41;5052256;28;19921;-49
2022/01/05 05:45:45;;;;;;;;;;;;;;;9.02;82.34;101010.72;5032295;28;19979;-49
2022/01/05 05:48:12;;;;;;;;;;;;;;;9.02;82.37;101021.84;5033095;28;20254;-49
2022/01/05 05:50:38;;;;;;;;;;;;;;;9.00;82.61;101021.28;5032792;28;19927;-53
2022/01/05 05:53:05;;;;;;;;;;;;;;;8.98;82.82;101009.53;5032231;28;19975;-49
2022/01/05 05:55:37;;;;;;;;;;;;;;;8.93;82.88;101009.50;5033143;28;19944;-51
2022/01/05 05:58:04;;;;;;;;;;;;;;;8.91;82.73;101008.91;5033017;28;20004;-51
2022/01/05 06:00:30;;;;;;;;;;;;;;;8.87;82.55;100997.44;5032028;28;20015;-50
2022/01/05 06:02:59;;;;;;;;;;;;;;;8.77;82.67;100989.78;5032598;28;19921;-51
2022/01/05 06:05:26;;;;;;;;;;;;;;;8.67;82.69;100986.84;5032396;28;20016;-52
2022/01/05 06:07:52;;;;;;;;;;;;;;;8.58;82.77;100991.22;5031536;28;19995;-50
2022/01/05 06:10:21;;;;;;;;;;;;;;;8.46;82.94;101002.44;5032371;28;19996;-52
2022/01/05 06:12:47;;;;;;;;;;;;;;;8.36;83.33;101001.41;5037911;28;20453;-52
2022/01/05 06:15:14;;;;;;;;;;;;;;;8.29;83.76;100996.03;5033089;28;19921;-48
2022/01/05 06:17:41;;;;;;;;;;;;;;;8.22;83.65;100987.84;5032824;28;19975;-52
2022/01/05 06:20:09;;;;;;;;;;;;;;;8.20;84.08;100998.38;5032740;28;20011;-50
2022/01/05 06:22:42;;;;;;;;;;;;;;;8.18;83.98;101006.16;5032565;28;20364;-50
2022/01/05 06:25:09;;;;;;;;;;;;;;;8.15;84.16;100994.69;5032360;28;19983;-51
2022/01/05 06:27:36;;;;;;;;;;;;;;;8.15;84.23;100997.47;5031848;28;19961;-50
2022/01/05 06:30:06;;;;;;;;;;;;;;;8.14;84.53;100999.41;5033397;28;19975;-52
2022/01/05 06:32:34;;;;;;;;;;;;;;;8.12;84.45;100992.41;5052190;28;20377;-47
2022/01/05 06:35:02;;;;;;;;;;;;;;;8.09;84.62;100996.53;5043858;28;19968;-51
2022/01/05 06:37:28;;;;;;;;;;;;;;;8.06;84.91;100999.81;5032237;28;20012;-50
2022/01/05 06:39:55;;;;;;;;;;;;;;;8.05;85.02;101020.41;5032150;28;20385;-51
2022/01/05 06:42:22;;;;;;;;;;;;;;;8.05;85.06;101020.41;5032172;28;20011;-50
2022/01/05 06:44:49;;;;;;;;;;;;;;;8.04;85.16;101018.72;5032023;28;20012;-50
2022/01/05 06:47:17;;;;;;;;;;;;;;;8.05;85.26;101017.63;5045274;28;19920;-50
2022/01/05 06:49:44;;;;;;;;;;;;;;;8.02;85.27;101012.53;5052104;28;19967;-49
2022/01/05 06:52:11;;;;;;;;;;;;;;;7.98;85.53;101006.66;5037965;28;20361;-52
2022/01/05 06:54:40;;;;;;;;;;;;;;;7.99;85.55;100999.97;5034960;28;20020;-52
2022/01/05 06:57:07;;;;;;;;;;;;;;;8.01;85.66;100996.97;5036387;28;20420;-50
2022/01/05 06:59:35;;;;;;;;;;;;;;;7.99;85.74;100996.38;5036004;28;19968;-50
2022/01/05 07:02:04;;;;;;;;;;;;;;;7.97;85.83;100993.84;5035572;28;19984;-52
2022/01/05 07:04:31;;;;;;;;;;;;;;;7.99;86.18;101002.75;5035665;28;19967;-54
2022/01/05 07:06:59;;;;;;;;;;;;;;;8.01;86.20;101005.31;5035621;28;19921;-50
2022/01/05 07:09:26;;;;;;;;;;;;;;;8.04;85.99;101002.03;5036283;28;20007;-55
2022/01/05 07:11:52;;;;;;;;;;;;;;;8.05;86.24;100989.78;5035620;28;19921;-52
2022/01/05 07:14:23;;;;;;;;;;;;;;;8.07;86.36;100982.06;5054933;28;20269;-53
2022/01/05 07:16:51;;;;;;;;;;;;;;;8.10;86.36;100977.91;5055284;28;20360;-48
2022/01/05 07:19:20;;;;;;;;;;;;;;;8.15;86.17;100986.34;5044752;28;20448;-51
2022/01/05 07:21:47;;;;;;;;;;;;;;;8.17;86.22;100979.44;5035643;28;20007;-51
2022/01/05 07:24:16;;;;;;;;;;;;;;;8.18;86.21;100981.09;5035495;28;20017;-50
2022/01/05 07:26:44;;;;;;;;;;;;;;;8.19;86.10;100968.88;5035474;28;19921;-53
2022/01/05 07:29:14;;;;;;;;;;;;;;;8.20;86.08;100983.63;5035358;28;19980;-53
2022/01/05 07:31:41;;;;;;;;;;;;;;;8.20;86.10;100980.84;5035277;28;19921;-53
2022/01/05 07:34:08;;;;;;;;;;;;;;;8.20;86.17;100978.91;5035185;28;20009;-52
2022/01/05 07:36:35;;;;;;;;;;;;;;;8.27;86.33;100981.50;5044678;28;19972;-48
2022/01/05 07:39:03;;;;;;;;;;;;;;;8.30;86.40;100978.22;5055462;28;20007;-50
2022/01/05 07:41:30;;;;;;;;;;;;;;;8.32;86.37;100973.25;5045565;28;20035;-51
2022/01/05 07:43:56;;;;;;;;;;;;;;;8.33;86.35;100974.94;5035984;28;20343;-52
2022/01/05 07:46:23;;;;;;;;;;;;;;;8.36;85.96;100973.56;5034593;28;20032;-50
2022/01/05 07:48:50;;;;;;;;;;;;;;;8.39;86.22;100971.16;5035037;28;20069;-52
2022/01/05 07:51:16;;;;;;;;;;;;;;;8.38;86.14;100963.91;5038071;28;20295;-51
2022/01/05 07:53:43;;;;;;;;;;;;;;;8.42;86.05;100969.81;5054876;28;20546;-52
2022/01/05 07:56:10;;;;;;;;;;;;;;;8.52;86.22;100967.19;5048874;28;19976;-50
2022/01/05 07:58:36;;;;;;;;;;;;;;;8.64;86.28;100967.03;5035073;28;19983;-47
2022/01/05 08:01:04;;;;;;;;;;;;;;;8.68;86.19;100959.84;5035005;28;19972;-50
2022/01/05 08:03:34;;;;;;;;;;;;;;;8.65;86.06;100949.22;5034604;28;19921;-52
2022/01/05 08:06:18;;;;;;;;;;;;;;;8.62;86.13;100945.03;5033228;28;19935;-51
2022/01/05 08:08:46;;;;;;;;;;;;;;;8.58;86.39;100949.44;5034511;28;20007;-53
2022/01/05 08:11:13;;;;;;;;;;;;;;;8.59;86.57;100955.84;5034841;28;19957;-51
2022/01/05 08:13:40;;;;;;;;;;;;;;;8.61;86.52;100959.22;5034151;28;19979;-54
2022/01/05 08:16:10;;;;;;;;;;;;;;;8.62;86.44;100955.34;5033931;28;19964;-53
2022/01/05 08:18:37;;;;;;;;;;;;;;;8.61;86.39;100962.81;5053692;28;20347;-53
2022/01/05 08:21:04;;;;;;;;;;;;;;;8.57;86.68;100953.31;5053675;28;20001;-50
2022/01/05 08:23:31;;;;;;;;;;;;;;;8.57;86.52;100958.03;5054295;28;22229;-53
2022/01/05 08:25:58;;;;;;;;;;;;;;;8.57;86.58;100964.44;5054259;28;19921;-53
2022/01/05 08:28:24;;;;;;;;;;;;;;;8.64;86.81;100955.91;5049348;28;20384;-53
2022/01/05 08:30:51;;;;;;;;;;;;;;;8.72;86.61;100956.31;5034061;28;20016;-51
2022/01/05 08:33:18;;;;;;;;;;;;;;;8.77;86.48;100948.00;5034885;28;20379;-50
2022/01/05 08:35:45;;;;;;;;;;;;;;;8.78;86.51;100946.91;5034145;28;19975;-52
2022/01/05 08:38:13;;;;;;;;;;;;;;;8.76;86.44;100963.03;5033825;28;20336;-52
2022/01/05 08:40:40;;;;;;;;;;;;;;;8.78;86.35;100958.03;5033928;28;19921;-50
2022/01/05 08:43:07;;;;;;;;;;;;;;;8.82;86.49;100947.25;5033730;28;20011;-52
2022/01/05 08:45:34;;;;;;;;;;;;;;;8.81;86.37;100939.13;5033881;28;19972;-51
2022/01/05 08:48:01;;;;;;;;;;;;;;;8.81;86.55;100942.75;5033240;28;20431;-52
2022/01/05 08:50:29;;;;;;;;;;;;;;;8.80;86.40;100949.44;5035073;28;20028;-52
2022/01/05 08:52:57;;;;;;;;;;;;;;;8.81;86.20;100950.28;5053800;28;20015;-53
2022/01/05 08:55:27;;;;;;;;;;;;;;;8.81;86.51;100955.84;5053561;28;19928;-52
2022/01/05 08:57:54;;;;;;;;;;;;;;;8.60;86.26;100908.25;5050476;28;19970;-51
2022/01/05 09:00:21;;;;;;;;;;;;;;;8.81;86.38;100953.91;5053507;28;19960;-51
2022/01/05 09:02:48;;;;;;;;;;;;;;;8.84;86.44;100953.38;5047915;28;19952;-51
2022/01/05 09:05:21;;;;;;;;;;;;;;;8.92;86.39;100952.09;5033354;28;19960;-49
2022/01/05 09:07:47;;;;;;;;;;;;;;;8.98;86.27;100942.69;5033342;28;19972;-49
2022/01/05 09:10:14;;;;;;;;;;;;;;;9.06;86.51;100944.16;5033823;28;20342;-49
2022/01/05 09:12:41;;;;;;;;;;;;;;;9.19;86.22;100939.03;5038231;28;20007;-54
2022/01/05 09:15:08;;;;;;;;;;;;;;;9.32;86.37;100948.09;5053653;28;20358;-51
2022/01/05 09:17:34;;;;;;;;;;;;;;;9.39;85.95;100949.56;5039772;28;20533;-52
2022/01/05 09:20:02;;;;;;;;;;;;;;;9.44;85.96;100941.25;5033253;28;20012;-49
2022/01/05 09:22:28;;;;;;;;;;;;;;;9.55;85.91;100941.34;5033126;28;20020;-52
2022/01/05 09:24:55;;;;;;;;;;;;;;;9.62;85.72;100930.81;5034038;28;20345;-52
2022/01/05 09:27:22;;;;;;;;;;;;;;;9.70;85.90;100933.94;5033455;28;20019;-51
2022/01/05 09:29:49;;;;;;;;;;;;;;;9.79;85.71;100941.84;5033032;28;20015;-51
2022/01/05 09:32:16;;;;;;;;;;;;;;;9.88;85.63;100945.81;5032961;28;19972;-52
2022/01/05 09:34:43;;;;;;;;;;;;;;;9.95;85.57;100935.28;5033128;28;20440;-50
2022/01/05 09:37:23;;;;;;;;;;;;;;;10.03;85.31;100942.31;5032962;28;20016;-49
2022/01/05 09:42:36;;;;;;;;;;;;;;;10.15;85.18;100929.00;5050633;28;20439;-50
2022/01/05 09:45:22;;;;;;;;;;;;;;;10.25;85.46;100933.81;5032709;28;19921;-50
2022/01/05 09:48:08;;;;;;;;;;;;;;;10.32;85.17;100926.06;5032548;28;19948;-51
2022/01/05 09:50:36;;;;;;;;;;;;;;;10.37;85.25;100932.53;5032917;28;19921;-52
2022/01/05 09:53:04;;;;;;;;;;;;;;;10.43;85.29;100930.63;5034756;28;20015;-53
2022/01/05 09:55:31;;;;;;;;;;;;;;;10.48;85.03;100930.63;5032934;28;20348;-53
2022/01/05 09:57:58;;;;;;;;;;;;;;;10.52;85.00;100922.56;5032688;28;20391;-50
2022/01/05 10:00:25;;;;;;;;;;;;;;;10.53;84.82;100925.09;5033567;28;20285;-51
2022/01/05 10:02:52;;;;;;;;;;;;;;;10.56;84.85;100932.91;5047116;28;20003;-49
2022/01/05 10:05:19;;;;;;;;;;;;;;;10.60;85.04;100930.44;5041374;28;19924;-53
2022/01/05 10:07:46;;;;;;;;;;;;;;;10.66;84.96;100930.16;5032560;28;20288;-49
2022/01/05 10:10:13;;;;;;;;;;;;;;;10.67;84.83;100926.28;5039375;28;19968;-49
2022/01/05 10:12:39;;;;;;;;;;;;;;;10.68;84.91;100944.72;5052515;28;20419;-49
2022/01/05 10:15:12;;;;;;;;;;;;;;;10.70;84.91;100941.66;5052727;28;19929;-53
2022/01/05 10:17:40;;;;;;;;;;;;;;;10.68;84.89;100950.28;5032189;28;20412;-51
2022/01/05 10:20:08;;;;;;;;;;;;;;;10.74;85.01;100950.34;5031814;28;19927;-52
2022/01/05 10:22:38;;;;;;;;;;;;;;;10.77;84.92;100949.75;5032748;28;20048;-53
2022/01/05 10:25:05;;;;;;;;;;;;;;;10.87;85.27;100947.00;5031978;28;20375;-51
2022/01/05 10:27:32;;;;;;;;;;;;;;;10.98;85.23;100948.75;5032639;28;20027;-48
2022/01/05 10:30:05;;;;;;;;;;;;;;;11.04;85.18;100941.22;5035073;28;20408;-53
2022/01/05 10:32:33;;;;;;;;;;;;;;;11.08;85.05;100943.22;5036381;28;19975;-50
2022/01/05 10:35:01;;;;;;;;;;;;;;;11.07;85.16;100935.91;5036656;28;19975;-51
2022/01/05 10:37:28;;;;;;;;;;;;;;;11.05;85.04;100926.97;5036246;28;20016;-50
2022/01/05 10:40:04;;;;;;;;;;;;;;;11.03;85.15;100915.22;5036372;28;20339;-47
2022/01/05 10:42:34;;;;;;;;;;;;;;;11.02;85.05;100910.75;5036434;28;19925;-51
2022/01/05 10:45:05;;;;;;;;;;;;;;;11.03;85.23;100901.25;5035691;28;20020;-51
2022/01/05 10:47:34;;;;;;;;;;;;;;;11.11;85.44;100902.66;5036014;28;20012;-49
2022/01/05 10:50:01;;;;;;;;;;;;;;;11.36;85.84;100896.31;5036529;28;19968;-51
2022/01/05 10:52:29;;;;;;;;;;;;;;;11.49;85.48;100892.13;5036132;28;19975;-50
2022/01/05 10:55:07;;;;;;;;;;;;;;;11.58;85.17;100887.63;5036085;28;20436;-48
2022/01/05 10:57:33;;;;;;;;;;;;;;;11.63;84.79;100882.91;5035926;28;19979;-50
2022/01/05 11:00:05;;;;;;;;;;;;;;;11.56;84.59;100876.75;5035929;28;19921;-51
2022/01/05 11:02:33;;;;;;;;;;;;;;;11.59;84.58;100869.75;5035638;28;19976;-51
2022/01/05 11:05:09;;;;;;;;;;;;;;;11.60;84.58;100866.66;5035644;28;19983;-52
2022/01/05 11:07:41;;;;;;;;;;;;;;;11.61;84.29;100857.16;5046350;28;19959;-51
2022/01/05 11:10:10;;;;;;;;;;;;;;;11.66;84.40;100858.25;5055513;28;20015;-50
2022/01/05 11:12:40;;;;;;;;;;;;;;;11.68;84.30;100850.44;5055728;28;20015;-52
2022/01/05 11:15:20;;;;;;;;;;;;;;;11.68;84.19;100847.66;5050125;28;19960;-51
2022/01/05 11:18:05;;;;;;;;;;;;;;;11.71;84.32;100847.09;5035323;28;19971;-48
2022/01/05 11:20:32;;;;;;;;;;;;;;;11.74;84.36;100838.97;5035475;28;19928;-52
2022/01/05 11:23:01;;;;;;;;;;;;;;;11.80;84.42;100839.81;5035661;28;19959;-52
2022/01/05 11:25:28;;;;;;;;;;;;;;;11.84;84.15;100840.94;5035702;28;20392;-52
2022/01/05 11:27:54;;;;;;;;;;;;;;;11.87;84.01;100831.16;5034839;28;20016;-49
2022/01/05 11:30:22;;;;;;;;;;;;;;;11.83;84.00;100830.84;5035414;28;19927;-52
2022/01/05 11:32:49;;;;;;;;;;;;;;;11.80;84.04;100828.63;5034977;28;19968;-52
2022/01/05 11:35:16;;;;;;;;;;;;;;;11.75;84.15;100834.22;5035243;28;19959;-49
2022/01/05 11:37:43;;;;;;;;;;;;;;;11.69;84.29;100829.72;5035083;28;20364;-51
2022/01/05 11:40:10;;;;;;;;;;;;;;;11.60;84.46;100821.91;5034294;28;20044;-50
2022/01/05 11:42:38;;;;;;;;;;;;;;;11.52;84.69;100818.81;5034639;28;19967;-50
2022/01/05 11:45:06;;;;;;;;;;;;;;;11.47;85.05;100808.50;5035077;28;19927;-51
2022/01/05 11:47:37;;;;;;;;;;;;;;;11.46;85.64;100804.03;5034769;28;19956;-50
2022/01/05 11:50:13;;;;;;;;;;;;;;;11.39;85.82;100803.47;5035081;28;20008;-51
2022/01/05 11:52:54;;;;;;;;;;;;;;;11.34;86.26;100779.13;5034605;28;19929;-51
2022/01/05 11:55:21;;;;;;;;;;;;;;;11.33;86.82;100757.06;5034534;28;20012;-51
2022/01/05 11:58:07;;;;;;;;;;;;;;;11.33;87.16;100762.66;5035393;28;20342;-50
2022/01/05 12:00:34;;;;;;;;;;;;;;;11.36;87.60;100765.72;5033852;28;20393;-52
2022/01/05 12:03:01;;;;;;;;;;;;;;;11.36;87.71;100762.09;5034898;28;19921;-52
2022/01/05 12:05:28;;;;;;;;;;;;;;;11.33;87.84;100762.66;5033039;28;20003;-49
2022/01/05 12:07:55;;;;;;;;;;;;;;;11.35;87.96;100752.00;5037787;28;20412;-52
2022/01/05 12:10:22;;;;;;;;;;;;;;;11.39;88.19;100742.78;5054642;28;20339;-50
2022/01/05 12:13:05;;;;;;;;;;;;;;;11.37;88.08;100724.63;5054002;28;20007;-51
2022/01/05 12:15:55;;;;;;;;;;;;;;;11.35;88.44;100718.44;5043263;28;19925;-52
2022/01/05 12:18:22;;;;;;;;;;;;;;;11.34;88.64;100725.16;5034381;28;20004;-51
2022/01/05 12:20:49;;;;;;;;;;;;;;;11.33;88.71;100703.94;5034620;28;19982;-52
2022/01/05 12:23:15;;;;;;;;;;;;;;;11.33;88.91;100703.94;5054388;28;19943;-49
2022/01/05 12:26:01;;;;;;;;;;;;;;;11.32;89.11;100702.28;5053922;28;19993;-52
2022/01/05 12:28:29;;;;;;;;;;;;;;;11.32;89.26;100686.31;5054184;28;19982;-53
2022/01/05 12:30:55;;;;;;;;;;;;;;;11.33;89.45;100675.97;5040870;28;19947;-53
2022/01/05 12:33:22;;;;;;;;;;;;;;;11.36;89.45;100693.03;5034732;28;20000;-50
2022/01/05 12:35:51;;;;;;;;;;;;;;;11.39;89.66;100672.06;5033717;28;19932;-53
2022/01/05 12:38:31;;;;;;;;;;;;;;;11.42;89.60;100679.88;5033873;28;20012;-52
2022/01/05 12:40:58;;;;;;;;;;;;;;;11.43;89.77;100656.38;5033938;28;19964;-54
2022/01/05 12:43:28;;;;;;;;;;;;;;;11.42;89.78;100657.50;5033666;28;19960;-52
2022/01/05 12:45:58;;;;;;;;;;;;;;;11.43;90.02;100645.19;5033591;28;19925;-53
2022/01/05 12:51:20;;;;;;;;;;;;;;;11.38;90.30;100634.88;5033181;28;19972;-56
2022/01/05 12:53:55;;;;;;;;;;;;;;;11.45;90.35;100630.91;5033703;28;20015;-54
2022/01/05 12:56:23;;;;;;;;;;;;;;;11.50;90.47;100617.75;5033697;28;19921;-54